sensor_id;sensor_type;location;lat;lon;timestamp;pressure;altitude;pressure_sealevel;temperature;humidity
76637;BME280;65532;52.124;5.480;2023-03-01T00:01:17;103235.50;;;-2.97;90.29
76637;BME280;65532;52.124;5.480;2023-03-01T00:03:44;103227.78;;;-3.02;90.91
76637;BME280;65532;52.124;5.480;2023-03-01T00:06:11;103228.56;;;-3.00;91.01
76637;BME280;65532;52.124;5.480;2023-03-01T00:08:37;103230.28;;;-2.99;91.67
76637;BME280;65532;52.124;5.480;2023-03-01T00:13:41;103237.44;;;-3.01;91.39
76637;BME280;65532;52.124;5.480;2023-03-01T00:16:14;103230.78;;;-3.08;91.35
76637;BME280;65532;52.124;5.480;2023-03-01T00:18:41;103236.66;;;-3.19;91.94
76637;BME280;65532;52.124;5.480;2023-03-01T00:21:08;103224.44;;;-3.21;92.08
76637;BME280;65532;52.124;5.480;2023-03-01T00:23:35;103224.44;;;-3.21;91.85
76637;BME280;65532;52.124;5.480;2023-03-01T00:26:06;103223.31;;;-3.17;92.22
76637;BME280;65532;52.124;5.480;2023-03-01T00:28:32;103218.81;;;-3.15;91.82
76637;BME280;65532;52.124;5.480;2023-03-01T00:31:10;103216.94;;;-3.13;92.49
76637;BME280;65532;52.124;5.480;2023-03-01T00:33:37;103217.78;;;-3.13;92.31
76637;BME280;65532;52.124;5.480;2023-03-01T00:36:04;103207.28;;;-3.14;92.44
76637;BME280;65532;52.124;5.480;2023-03-01T00:38:39;103215.22;;;-3.14;92.24
76637;BME280;65532;52.124;5.480;2023-03-01T00:41:11;103210.00;;;-3.16;91.95
76637;BME280;65532;52.124;5.480;2023-03-01T00:43:38;103210.25;;;-3.20;92.20
76637;BME280;65532;52.124;5.480;2023-03-01T00:46:10;103217.59;;;-3.25;92.76
76637;BME280;65532;52.124;5.480;2023-03-01T00:48:37;103217.44;;;-3.22;92.48
76637;BME280;65532;52.124;5.480;2023-03-01T00:51:08;103217.44;;;-3.22;92.72
76637;BME280;65532;52.124;5.480;2023-03-01T00:53:35;103207.00;;;-3.25;92.68
76637;BME280;65532;52.124;5.480;2023-03-01T00:56:04;103214.00;;;-3.24;92.42
76637;BME280;65532;52.124;5.480;2023-03-01T00:58:31;103210.34;;;-3.22;92.34
76637;BME280;65532;52.124;5.480;2023-03-01T01:00:58;103204.34;;;-3.25;92.40
76637;BME280;65532;52.124;5.480;2023-03-01T01:03:25;103198.59;;;-3.34;92.77
76637;BME280;65532;52.124;5.480;2023-03-01T01:05:52;103201.03;;;-3.29;92.62
76637;BME280;65532;52.124;5.480;2023-03-01T01:08:19;103196.41;;;-3.25;92.24
76637;BME280;65532;52.124;5.480;2023-03-01T01:10:47;103188.38;;;-3.24;92.86
76637;BME280;65532;52.124;5.480;2023-03-01T01:13:13;103191.72;;;-3.20;92.39
76637;BME280;65532;52.124;5.480;2023-03-01T01:15:40;103194.34;;;-3.20;91.96
76637;BME280;65532;52.124;5.480;2023-03-01T01:18:07;103179.41;;;-3.21;91.94
76637;BME280;65532;52.124;5.480;2023-03-01T01:20:35;103180.34;;;-3.22;92.71
76637;BME280;65532;52.124;5.480;2023-03-01T01:23:02;103174.19;;;-3.23;92.89
76637;BME280;65532;52.124;5.480;2023-03-01T01:25:28;103169.75;;;-3.22;92.42
76637;BME280;65532;52.124;5.480;2023-03-01T01:27:55;103174.09;;;-3.21;92.48
76637;BME280;65532;52.124;5.480;2023-03-01T01:30:21;103175.06;;;-3.22;92.79
76637;BME280;65532;52.124;5.480;2023-03-01T01:32:48;103167.28;;;-3.25;92.73
76637;BME280;65532;52.124;5.480;2023-03-01T01:35:14;103165.56;;;-3.26;92.91
76637;BME280;65532;52.124;5.480;2023-03-01T01:37:41;103171.81;;;-3.27;92.89
76637;BME280;65532;52.124;5.480;2023-03-01T01:40:09;103169.16;;;-3.27;92.37
76637;BME280;65532;52.124;5.480;2023-03-01T01:42:36;103166.50;;;-3.27;92.89
76637;BME280;65532;52.124;5.480;2023-03-01T01:45:26;103170.09;;;-3.28;92.80
76637;BME280;65532;52.124;5.480;2023-03-01T01:47:56;103167.59;;;-3.32;92.69
76637;BME280;65532;52.124;5.480;2023-03-01T01:50:24;103164.81;;;-3.28;92.68
76637;BME280;65532;52.124;5.480;2023-03-01T01:52:53;103159.50;;;-3.28;91.85
76637;BME280;65532;52.124;5.480;2023-03-01T01:55:24;103159.41;;;-3.27;91.90
76637;BME280;65532;52.124;5.480;2023-03-01T01:57:56;103160.28;;;-3.26;91.72
76637;BME280;65532;52.124;5.480;2023-03-01T02:00:27;103155.91;;;-3.27;91.28
76637;BME280;65532;52.124;5.480;2023-03-01T02:03:00;103154.22;;;-3.28;91.96
76637;BME280;65532;52.124;5.480;2023-03-01T02:08:23;103154.31;;;-3.30;91.57
76637;BME280;65532;52.124;5.480;2023-03-01T02:10:52;103154.69;;;-3.38;91.45
76637;BME280;65532;52.124;5.480;2023-03-01T02:13:19;103154.03;;;-3.41;90.81
76637;BME280;65532;52.124;5.480;2023-03-01T02:15:46;103150.44;;;-3.40;89.87
76637;BME280;65532;52.124;5.480;2023-03-01T02:18:17;103147.69;;;-3.39;89.37
76637;BME280;65532;52.124;5.480;2023-03-01T02:23:20;103148.47;;;-3.37;88.91
76637;BME280;65532;52.124;5.480;2023-03-01T02:25:56;103150.16;;;-3.36;88.08
76637;BME280;65532;52.124;5.480;2023-03-01T02:28:26;103145.66;;;-3.34;88.27
76637;BME280;65532;52.124;5.480;2023-03-01T02:30:53;103140.53;;;-3.37;88.17
76637;BME280;65532;52.124;5.480;2023-03-01T02:33:39;103135.22;;;-3.37;88.41
76637;BME280;65532;52.124;5.480;2023-03-01T02:36:14;103131.63;;;-3.36;87.74
76637;BME280;65532;52.124;5.480;2023-03-01T02:38:42;103129.75;;;-3.34;87.64
76637;BME280;65532;52.124;5.480;2023-03-01T02:41:13;103127.03;;;-3.32;87.57
76637;BME280;65532;52.124;5.480;2023-03-01T02:43:42;103126.03;;;-3.29;86.75
76637;BME280;65532;52.124;5.480;2023-03-01T02:46:18;103126.03;;;-3.29;87.13
76637;BME280;65532;52.124;5.480;2023-03-01T02:48:48;103122.53;;;-3.30;87.17
76637;BME280;65532;52.124;5.480;2023-03-01T02:51:22;103122.00;;;-3.37;86.54
76637;BME280;65532;52.124;5.480;2023-03-01T02:54:01;103125.50;;;-3.36;85.33
76637;BME280;65532;52.124;5.480;2023-03-01T02:56:32;103120.03;;;-3.33;87.87
76637;BME280;65532;52.124;5.480;2023-03-01T02:58:59;103120.28;;;-3.38;89.53
76637;BME280;65532;52.124;5.480;2023-03-01T03:01:28;103118.66;;;-3.40;89.04
76637;BME280;65532;52.124;5.480;2023-03-01T03:04:09;103134.53;;;-3.40;89.15
76637;BME280;65532;52.124;5.480;2023-03-01T03:06:37;103120.63;;;-3.44;89.44
76637;BME280;65532;52.124;5.480;2023-03-01T03:09:04;103114.56;;;-3.46;89.07
76637;BME280;65532;52.124;5.480;2023-03-01T03:11:31;103112.06;;;-3.49;88.76
76637;BME280;65532;52.124;5.480;2023-03-01T03:13:59;103112.16;;;-3.50;88.90
76637;BME280;65532;52.124;5.480;2023-03-01T03:16:25;103120.19;;;-3.52;88.21
76637;BME280;65532;52.124;5.480;2023-03-01T03:18:52;103109.75;;;-3.55;88.51
76637;BME280;65532;52.124;5.480;2023-03-01T03:21:18;103103.78;;;-3.58;87.97
76637;BME280;65532;52.124;5.480;2023-03-01T03:23:45;103106.53;;;-3.60;88.21
76637;BME280;65532;52.124;5.480;2023-03-01T03:26:11;103096.06;;;-3.63;88.22
76637;BME280;65532;52.124;5.480;2023-03-01T03:28:39;103099.75;;;-3.66;89.18
76637;BME280;65532;52.124;5.480;2023-03-01T03:31:07;103092.81;;;-3.68;89.06
76637;BME280;65532;52.124;5.480;2023-03-01T03:33:34;103102.72;;;-3.72;89.44
76637;BME280;65532;52.124;5.480;2023-03-01T03:36:01;103099.41;;;-3.75;90.31
76637;BME280;65532;52.124;5.480;2023-03-01T03:38:27;103107.44;;;-3.77;90.27
76637;BME280;65532;52.124;5.480;2023-03-01T03:41:03;103098.00;;;-3.82;90.44
76637;BME280;65532;52.124;5.480;2023-03-01T03:43:32;103100.81;;;-3.85;90.88
76637;BME280;65532;52.124;5.480;2023-03-01T03:46:00;103104.56;;;-3.89;90.62
76637;BME280;65532;52.124;5.480;2023-03-01T03:48:27;103098.44;;;-3.90;90.76
76637;BME280;65532;52.124;5.480;2023-03-01T03:50:55;103100.13;;;-3.89;90.83
76637;BME280;65532;52.124;5.480;2023-03-01T03:53:24;103091.44;;;-3.91;90.36
76637;BME280;65532;52.124;5.480;2023-03-01T03:55:51;103085.41;;;-3.95;90.86
76637;BME280;65532;52.124;5.480;2023-03-01T03:58:19;103083.72;;;-3.96;90.17
76637;BME280;65532;52.124;5.480;2023-03-01T04:00:49;103087.28;;;-3.97;90.23
76637;BME280;65532;52.124;5.480;2023-03-01T04:03:17;103089.16;;;-3.99;90.13
76637;BME280;65532;52.124;5.480;2023-03-01T04:05:46;103091.13;;;-4.02;90.10
76637;BME280;65532;52.124;5.480;2023-03-01T04:08:13;103087.81;;;-4.06;89.99
76637;BME280;65532;52.124;5.480;2023-03-01T04:10:43;103093.94;;;-4.05;89.83
76637;BME280;65532;52.124;5.480;2023-03-01T04:13:17;103088.81;;;-4.08;90.17
76637;BME280;65532;52.124;5.480;2023-03-01T04:15:48;103101.25;;;-4.10;89.93
76637;BME280;65532;52.124;5.480;2023-03-01T04:18:16;103099.63;;;-4.13;90.24
76637;BME280;65532;52.124;5.480;2023-03-01T04:20:43;103099.78;;;-4.16;89.92
76637;BME280;65532;52.124;5.480;2023-03-01T04:23:16;103095.44;;;-4.17;90.12
76637;BME280;65532;52.124;5.480;2023-03-01T04:28:29;103103.81;;;-4.26;89.90
76637;BME280;65532;52.124;5.480;2023-03-01T04:30:57;103097.94;;;-4.31;89.94
76637;BME280;65532;52.124;5.480;2023-03-01T04:33:25;103105.84;;;-4.31;89.82
76637;BME280;65532;52.124;5.480;2023-03-01T04:35:52;103098.09;;;-4.34;89.75
76637;BME280;65532;52.124;5.480;2023-03-01T04:38:19;103099.09;;;-4.37;89.80
76637;BME280;65532;52.124;5.480;2023-03-01T04:40:47;103100.03;;;-4.38;90.24
76637;BME280;65532;52.124;5.480;2023-03-01T04:43:14;103095.69;;;-4.39;90.30
76637;BME280;65532;52.124;5.480;2023-03-01T04:45:41;103089.63;;;-4.41;90.27
76637;BME280;65532;52.124;5.480;2023-03-01T04:48:07;103086.25;;;-4.44;89.90
76637;BME280;65532;52.124;5.480;2023-03-01T04:50:34;103089.31;;;-4.52;90.14
76637;BME280;65532;52.124;5.480;2023-03-01T04:53:01;103080.97;;;-4.62;90.05
76637;BME280;65532;52.124;5.480;2023-03-01T04:55:28;103078.16;;;-4.76;90.27
76637;BME280;65532;52.124;5.480;2023-03-01T04:57:55;103078.34;;;-4.79;90.05
76637;BME280;65532;52.124;5.480;2023-03-01T05:00:22;103072.13;;;-4.78;89.62
76637;BME280;65532;52.124;5.480;2023-03-01T05:02:52;103066.66;;;-4.75;88.96
76637;BME280;65532;52.124;5.480;2023-03-01T05:07:58;103056.84;;;-4.71;87.99
76637;BME280;65532;52.124;5.480;2023-03-01T05:10:27;103054.09;;;-4.70;87.42
76637;BME280;65532;52.124;5.480;2023-03-01T05:12:58;103054.09;;;-4.70;87.50
76637;BME280;65532;52.124;5.480;2023-03-01T05:15:26;103054.09;;;-4.70;86.73
76637;BME280;65532;52.124;5.480;2023-03-01T05:17:56;103043.53;;;-4.70;86.68
76637;BME280;65532;52.124;5.480;2023-03-01T05:20:26;103043.53;;;-4.70;86.62
76637;BME280;65532;52.124;5.480;2023-03-01T05:22:57;103054.09;;;-4.70;86.16
76637;BME280;65532;52.124;5.480;2023-03-01T05:25:25;103041.06;;;-4.73;86.27
76637;BME280;65532;52.124;5.480;2023-03-01T05:27:52;103037.69;;;-4.76;85.98
76637;BME280;65532;52.124;5.480;2023-03-01T05:30:18;103040.41;;;-4.78;85.97
76637;BME280;65532;52.124;5.480;2023-03-01T05:32:49;103031.72;;;-4.80;85.87
76637;BME280;65532;52.124;5.480;2023-03-01T05:35:21;103034.44;;;-4.82;85.39
76637;BME280;65532;52.124;5.480;2023-03-01T05:37:49;103031.03;;;-4.84;85.05
76637;BME280;65532;52.124;5.480;2023-03-01T05:40:20;103025.66;;;-4.82;84.05
76637;BME280;65532;52.124;5.480;2023-03-01T05:42:53;103021.31;;;-4.83;83.39
76637;BME280;65532;52.124;5.480;2023-03-01T05:45:21;103016.31;;;-4.89;82.81
76637;BME280;65532;52.124;5.480;2023-03-01T05:47:49;103013.06;;;-4.94;82.16
76637;BME280;65532;52.124;5.480;2023-03-01T05:50:25;103016.78;;;-4.98;81.14
76637;BME280;65532;52.124;5.480;2023-03-01T05:52:58;103019.59;;;-5.01;80.33
76637;BME280;65532;52.124;5.480;2023-03-01T05:55:26;103013.31;;;-4.99;79.48
76637;BME280;65532;52.124;5.480;2023-03-01T05:57:54;103008.09;;;-5.00;79.39
76637;BME280;65532;52.124;5.480;2023-03-01T06:00:21;103008.09;;;-5.00;79.39
76637;BME280;65532;52.124;5.480;2023-03-01T06:02:50;103009.19;;;-5.04;79.17
76637;BME280;65532;52.124;5.480;2023-03-01T06:05:18;103013.66;;;-5.06;79.28
76637;BME280;65532;52.124;5.480;2023-03-01T06:07:44;103013.59;;;-5.05;79.22
76637;BME280;65532;52.124;5.480;2023-03-01T06:10:12;103013.53;;;-5.03;78.72
76637;BME280;65532;52.124;5.480;2023-03-01T06:12:40;103006.25;;;-4.98;77.81
76637;BME280;65532;52.124;5.480;2023-03-01T06:15:08;103008.88;;;-4.98;77.59
76637;BME280;65532;52.124;5.480;2023-03-01T06:17:38;103018.34;;;-4.94;77.90
76637;BME280;65532;52.124;5.480;2023-03-01T06:20:08;103014.78;;;-4.93;78.01
76637;BME280;65532;52.124;5.480;2023-03-01T06:22:35;103021.75;;;-4.92;78.68
76637;BME280;65532;52.124;5.480;2023-03-01T06:25:02;103010.25;;;-4.91;79.06
76637;BME280;65532;52.124;5.480;2023-03-01T06:27:29;103015.47;;;-4.90;79.42
76637;BME280;65532;52.124;5.480;2023-03-01T06:29:55;103010.13;;;-4.88;79.87
76637;BME280;65532;52.124;5.480;2023-03-01T06:32:22;103004.84;;;-4.88;80.46
76637;BME280;65532;52.124;5.480;2023-03-01T06:34:49;103009.19;;;-4.87;81.37
76637;BME280;65532;52.124;5.480;2023-03-01T06:37:16;103018.66;;;-4.83;81.58
76637;BME280;65532;52.124;5.480;2023-03-01T06:39:42;103019.44;;;-4.81;81.54
76637;BME280;65532;52.124;5.480;2023-03-01T06:42:09;103017.50;;;-4.77;81.84
76637;BME280;65532;52.124;5.480;2023-03-01T06:44:37;103014.84;;;-4.77;82.77
76637;BME280;65532;52.124;5.480;2023-03-01T06:47:04;103010.59;;;-4.80;83.47
76637;BME280;65532;52.124;5.480;2023-03-01T06:49:31;103015.88;;;-4.80;83.70
76637;BME280;65532;52.124;5.480;2023-03-01T06:51:58;103008.88;;;-4.81;83.66
76637;BME280;65532;52.124;5.480;2023-03-01T06:54:25;103008.72;;;-4.78;83.70
76637;BME280;65532;52.124;5.480;2023-03-01T06:56:51;103009.41;;;-4.74;83.68
76637;BME280;65532;52.124;5.480;2023-03-01T06:59:18;103009.28;;;-4.71;83.41
76637;BME280;65532;52.124;5.480;2023-03-01T07:01:45;103006.41;;;-4.67;83.10
76637;BME280;65532;52.124;5.480;2023-03-01T07:04:12;103015.69;;;-4.60;82.34
76637;BME280;65532;52.124;5.480;2023-03-01T07:06:40;103012.75;;;-4.54;82.46
76637;BME280;65532;52.124;5.480;2023-03-01T07:09:06;103009.19;;;-4.53;82.14
76637;BME280;65532;52.124;5.480;2023-03-01T07:11:33;103009.00;;;-4.49;82.02
76637;BME280;65532;52.124;5.480;2023-03-01T07:13:59;103013.84;;;-4.40;81.43
76637;BME280;65532;52.124;5.480;2023-03-01T07:16:26;103013.34;;;-4.31;80.83
76637;BME280;65532;52.124;5.480;2023-03-01T07:18:53;103011.84;;;-4.19;80.25
76637;BME280;65532;52.124;5.480;2023-03-01T07:21:19;103017.56;;;-4.11;79.60
76637;BME280;65532;52.124;5.480;2023-03-01T07:23:47;103016.22;;;-4.03;79.76
76637;BME280;65532;52.124;5.480;2023-03-01T07:26:14;103004.38;;;-3.96;80.17
76637;BME280;65532;52.124;5.480;2023-03-01T07:28:40;103017.97;;;-3.86;80.28
76637;BME280;65532;52.124;5.480;2023-03-01T07:31:07;103020.13;;;-3.77;80.75
76637;BME280;65532;52.124;5.480;2023-03-01T07:33:34;103021.19;;;-3.18;69.14
76637;BME280;65532;52.124;5.480;2023-03-01T07:36:04;103015.50;;;-0.20;44.73
76637;BME280;65532;52.124;5.480;2023-03-01T07:38:31;103008.00;;;2.21;91.15
76637;BME280;65532;52.124;5.480;2023-03-01T07:41:02;103009.88;;;3.07;90.25
76637;BME280;65532;52.124;5.480;2023-03-01T07:43:30;103006.78;;;3.43;86.82
76637;BME280;65532;52.124;5.480;2023-03-01T07:46:03;103008.66;;;3.73;81.65
76637;BME280;65532;52.124;5.480;2023-03-01T07:48:30;103012.75;;;4.08;79.87
76637;BME280;65532;52.124;5.480;2023-03-01T07:51:01;103015.31;;;4.49;76.69
76637;BME280;65532;52.124;5.480;2023-03-01T07:53:28;103021.19;;;4.93;75.95
76637;BME280;65532;52.124;5.480;2023-03-01T07:56:08;103010.78;;;5.66;70.12
76637;BME280;65532;52.124;5.480;2023-03-01T07:58:36;103006.94;;;6.25;67.65
76637;BME280;65532;52.124;5.480;2023-03-01T08:01:05;103011.16;;;6.27;64.21
76637;BME280;65532;52.124;5.480;2023-03-01T08:03:33;103018.44;;;6.17;63.42
76637;BME280;65532;52.124;5.480;2023-03-01T08:06:00;103015.03;;;6.15;63.71
76637;BME280;65532;52.124;5.480;2023-03-01T08:08:28;103015.75;;;6.45;61.63
76637;BME280;65532;52.124;5.480;2023-03-01T08:10:58;103014.56;;;6.93;61.25
76637;BME280;65532;52.124;5.480;2023-03-01T08:13:26;103008.13;;;7.03;59.17
76637;BME280;65532;52.124;5.480;2023-03-01T08:15:53;103012.25;;;7.33;58.75
76637;BME280;65532;52.124;5.480;2023-03-01T08:18:20;103002.38;;;7.60;56.92
76637;BME280;65532;52.124;5.480;2023-03-01T08:20:47;103005.75;;;8.22;55.32
76637;BME280;65532;52.124;5.480;2023-03-01T08:23:14;103008.59;;;8.54;54.37
76637;BME280;65532;52.124;5.480;2023-03-01T08:25:40;103007.25;;;8.66;52.84
76637;BME280;65532;52.124;5.480;2023-03-01T08:28:07;103011.56;;;9.02;52.05
76637;BME280;65532;52.124;5.480;2023-03-01T08:30:34;103003.31;;;9.36;51.07
76637;BME280;65532;52.124;5.480;2023-03-01T08:33:00;102994.00;;;9.22;51.41
76637;BME280;65532;52.124;5.480;2023-03-01T08:35:27;102994.66;;;9.56;50.66
76637;BME280;65532;52.124;5.480;2023-03-01T08:37:53;102993.81;;;9.64;49.59
76637;BME280;65532;52.124;5.480;2023-03-01T08:40:20;102993.69;;;9.33;51.00
76637;BME280;65532;52.124;5.480;2023-03-01T08:42:46;102993.78;;;9.72;50.27
76637;BME280;65532;52.124;5.480;2023-03-01T08:45:13;102989.25;;;10.20;49.82
76637;BME280;65532;52.124;5.480;2023-03-01T08:47:44;102991.19;;;11.42;47.52
76637;BME280;65532;52.124;5.480;2023-03-01T08:50:11;102987.22;;;13.20;45.05
76637;BME280;65532;52.124;5.480;2023-03-01T08:52:38;102976.59;;;12.82;42.45
76637;BME280;65532;52.124;5.480;2023-03-01T08:55:05;102981.34;;;11.93;42.88
76637;BME280;65532;52.124;5.480;2023-03-01T08:57:32;102986.19;;;11.98;43.59
76637;BME280;65532;52.124;5.480;2023-03-01T08:59:58;102973.91;;;11.73;43.68
76637;BME280;65532;52.124;5.480;2023-03-01T09:02:25;102975.59;;;11.74;42.42
76637;BME280;65532;52.124;5.480;2023-03-01T09:04:51;102982.56;;;11.16;43.71
76637;BME280;65532;52.124;5.480;2023-03-01T09:07:18;102975.34;;;10.62;43.59
76637;BME280;65532;52.124;5.480;2023-03-01T09:09:44;102975.03;;;10.18;44.09
76637;BME280;65532;52.124;5.480;2023-03-01T09:12:11;102970.09;;;9.74;45.69
76637;BME280;65532;52.124;5.480;2023-03-01T09:14:37;102959.69;;;11.18;44.45
76637;BME280;65532;52.124;5.480;2023-03-01T09:17:05;102959.50;;;11.57;43.53
76637;BME280;65532;52.124;5.480;2023-03-01T09:19:31;102963.09;;;12.74;41.48
76637;BME280;65532;52.124;5.480;2023-03-01T09:21:58;102951.59;;;12.94;43.76
76637;BME280;65532;52.124;5.480;2023-03-01T09:24:25;102943.44;;;13.15;40.90
76637;BME280;65532;52.124;5.480;2023-03-01T09:26:56;102943.31;;;13.02;40.36
76637;BME280;65532;52.124;5.480;2023-03-01T09:29:23;102943.25;;;11.87;39.53
76637;BME280;65532;52.124;5.480;2023-03-01T09:31:49;102938.75;;;9.49;41.95
76637;BME280;65532;52.124;5.480;2023-03-01T09:34:16;102943.69;;;8.22;45.07
76637;BME280;65532;52.124;5.480;2023-03-01T09:36:48;102938.84;;;7.31;47.17
76637;BME280;65532;52.124;5.480;2023-03-01T09:39:14;102943.19;;;6.53;48.90
76637;BME280;65532;52.124;5.480;2023-03-01T09:42:00;102942.53;;;5.96;51.57
76637;BME280;65532;52.124;5.480;2023-03-01T09:44:47;102947.66;;;6.62;50.55
76637;BME280;65532;52.124;5.480;2023-03-01T09:47:25;102935.31;;;5.96;51.78
76637;BME280;65532;52.124;5.480;2023-03-01T09:55:01;102936.47;;;5.94;52.52
76637;BME280;65532;52.124;5.480;2023-03-01T09:57:37;102938.75;;;5.32;51.78
76637;BME280;65532;52.124;5.480;2023-03-01T10:03:09;102940.09;;;4.70;54.23
76637;BME280;65532;52.124;5.480;2023-03-01T10:05:43;102934.56;;;4.72;55.48
76637;BME280;65532;52.124;5.480;2023-03-01T10:08:26;102935.00;;;4.87;55.45
76637;BME280;65532;52.124;5.480;2023-03-01T10:10:55;102935.28;;;4.93;55.92
76637;BME280;65532;52.124;5.480;2023-03-01T10:16:19;102929.31;;;5.28;55.21
76637;BME280;65532;52.124;5.480;2023-03-01T10:18:53;102931.63;;;5.60;55.68
76637;BME280;65532;52.124;5.480;2023-03-01T10:21:20;102932.50;;;6.43;54.89
76637;BME280;65532;52.124;5.480;2023-03-01T10:23:51;102927.28;;;6.77;52.90
76637;BME280;65532;52.124;5.480;2023-03-01T10:26:32;102921.34;;;6.91;52.00
76637;BME280;65532;52.124;5.480;2023-03-01T10:29:04;102921.66;;;6.53;50.92
76637;BME280;65532;52.124;5.480;2023-03-01T10:34:33;102926.59;;;5.85;50.72
76637;BME280;65532;52.124;5.480;2023-03-01T10:37:12;102912.81;;;5.60;51.17
76637;BME280;65532;52.124;5.480;2023-03-01T10:40:05;102907.75;;;5.48;51.19
76637;BME280;65532;52.124;5.480;2023-03-01T10:42:57;102912.25;;;5.57;52.45
76637;BME280;65532;52.124;5.480;2023-03-01T10:45:31;102901.38;;;5.58;50.90
76637;BME280;65532;52.124;5.480;2023-03-01T10:48:05;102899.47;;;5.41;50.66
76637;BME280;65532;52.124;5.480;2023-03-01T10:50:32;102903.22;;;5.48;51.03
76637;BME280;65532;52.124;5.480;2023-03-01T10:53:01;102893.56;;;5.65;50.91
76637;BME280;65532;52.124;5.480;2023-03-01T10:55:36;102894.13;;;5.68;50.34
76637;BME280;65532;52.124;5.480;2023-03-01T10:58:17;102887.38;;;5.82;50.76
76637;BME280;65532;52.124;5.480;2023-03-01T11:00:57;102873.53;;;5.87;50.13
76637;BME280;65532;52.124;5.480;2023-03-01T11:03:32;102875.38;;;5.86;49.41
76637;BME280;65532;52.124;5.480;2023-03-01T11:06:19;102869.72;;;5.80;49.14
76637;BME280;65532;52.124;5.480;2023-03-01T11:08:49;102874.22;;;5.89;49.21
76637;BME280;65532;52.124;5.480;2023-03-01T11:11:20;102864.06;;;6.10;49.42
76637;BME280;65532;52.124;5.480;2023-03-01T11:14:16;102860.31;;;6.39;48.42
76637;BME280;65532;52.124;5.480;2023-03-01T11:17:12;102855.09;;;6.19;47.53
76637;BME280;65532;52.124;5.480;2023-03-01T11:19:40;102862.47;;;6.17;47.07
76637;BME280;65532;52.124;5.480;2023-03-01T11:22:14;102844.34;;;6.19;47.79
76637;BME280;65532;52.124;5.480;2023-03-01T11:24:54;102854.00;;;6.12;47.48
76637;BME280;65532;52.124;5.480;2023-03-01T11:27:40;102851.19;;;6.32;47.51
76637;BME280;65532;52.124;5.480;2023-03-01T11:30:40;102851.41;;;6.20;47.81
76637;BME280;65532;52.124;5.480;2023-03-01T11:33:18;102843.72;;;6.25;48.81
76637;BME280;65532;52.124;5.480;2023-03-01T11:35:55;102833.56;;;6.37;48.64
76637;BME280;65532;52.124;5.480;2023-03-01T11:38:26;102837.31;;;6.44;47.27
76637;BME280;65532;52.124;5.480;2023-03-01T11:41:11;102843.13;;;6.32;47.75
76637;BME280;65532;52.124;5.480;2023-03-01T11:43:52;102840.25;;;6.51;48.31
76637;BME280;65532;52.124;5.480;2023-03-01T11:52:11;102837.13;;;6.38;46.48
76637;BME280;65532;52.124;5.480;2023-03-01T11:55:14;102838.81;;;6.39;47.29
76637;BME280;65532;52.124;5.480;2023-03-01T12:01:02;102825.13;;;6.50;47.71
76637;BME280;65532;52.124;5.480;2023-03-01T12:03:47;102825.03;;;6.42;47.36
76637;BME280;65532;52.124;5.480;2023-03-01T12:11:37;102821.03;;;6.64;46.64
76637;BME280;65532;52.124;5.480;2023-03-01T12:14:35;102822.16;;;6.79;45.55
76637;BME280;65532;52.124;5.480;2023-03-01T12:20:14;102824.84;;;7.05;46.58
76637;BME280;65532;52.124;5.480;2023-03-01T12:22:57;102824.50;;;7.08;45.52
76637;BME280;65532;52.124;5.480;2023-03-01T12:26:15;102824.06;;;6.86;45.53
76637;BME280;65532;52.124;5.480;2023-03-01T12:34:43;102818.22;;;6.73;46.07
76637;BME280;65532;52.124;5.480;2023-03-01T12:43:38;102790.75;;;7.21;45.12
76637;BME280;65532;52.124;5.480;2023-03-01T12:49:10;102782.06;;;7.02;43.87
76637;BME280;65532;52.124;5.480;2023-03-01T12:51:22;102791.63;;;6.70;44.52
76637;BME280;65532;52.124;5.480;2023-03-01T12:53:51;102779.03;;;6.71;44.55
76637;BME280;65532;52.124;5.480;2023-03-01T12:56:22;102774.91;;;6.84;44.50
76637;BME280;65532;52.124;5.480;2023-03-01T12:59:18;102764.75;;;6.78;43.47
76637;BME280;65532;52.124;5.480;2023-03-01T13:01:59;102769.94;;;6.72;43.87
76637;BME280;65532;52.124;5.480;2023-03-01T13:17:51;102731.94;;;7.09;45.30
76637;BME280;65532;52.124;5.480;2023-03-01T13:20:21;102739.06;;;7.18;44.38
76637;BME280;65532;52.124;5.480;2023-03-01T13:23:01;102738.75;;;7.21;45.33
76637;BME280;65532;52.124;5.480;2023-03-01T13:25:28;102726.28;;;7.20;44.20
76637;BME280;65532;52.124;5.480;2023-03-01T13:31:03;102707.13;;;7.31;44.42
76637;BME280;65532;52.124;5.480;2023-03-01T13:44:40;102694.47;;;7.24;45.48
76637;BME280;65532;52.124;5.480;2023-03-01T13:49:48;102695.84;;;7.28;44.74
76637;BME280;65532;52.124;5.480;2023-03-01T13:52:29;102689.63;;;7.27;45.15
76637;BME280;65532;52.124;5.480;2023-03-01T13:54:58;102688.78;;;7.27;44.29
76637;BME280;65532;52.124;5.480;2023-03-01T13:57:37;102692.81;;;7.39;44.25
76637;BME280;65532;52.124;5.480;2023-03-01T14:00:06;102680.53;;;7.28;44.12
76637;BME280;65532;52.124;5.480;2023-03-01T14:02:33;102669.03;;;7.18;43.24
76637;BME280;65532;52.124;5.480;2023-03-01T14:05:03;102667.00;;;7.20;43.25
76637;BME280;65532;52.124;5.480;2023-03-01T14:07:29;102664.09;;;7.05;42.90
76637;BME280;65532;52.124;5.480;2023-03-01T14:09:59;102663.59;;;7.10;43.38
76637;BME280;65532;52.124;5.480;2023-03-01T14:13:38;102656.88;;;7.06;42.36
76637;BME280;65532;52.124;5.480;2023-03-01T14:18:36;102650.13;;;7.02;43.86
76637;BME280;65532;52.124;5.480;2023-03-01T14:21:08;102636.72;;;7.18;44.18
76637;BME280;65532;52.124;5.480;2023-03-01T14:23:38;102642.81;;;7.36;44.71
76637;BME280;65532;52.124;5.480;2023-03-01T14:26:08;102642.47;;;7.31;43.91
76637;BME280;65532;52.124;5.480;2023-03-01T14:28:36;102641.44;;;7.24;43.52
76637;BME280;65532;52.124;5.480;2023-03-01T14:31:38;102632.88;;;7.29;43.17
76637;BME280;65532;52.124;5.480;2023-03-01T14:34:23;102628.00;;;7.32;43.54
76637;BME280;65532;52.124;5.480;2023-03-01T14:36:50;102619.19;;;7.22;43.47
76637;BME280;65532;52.124;5.480;2023-03-01T14:39:24;102618.19;;;7.23;44.39
76637;BME280;65532;52.124;5.480;2023-03-01T14:41:52;102619.56;;;7.27;44.74
76637;BME280;65532;52.124;5.480;2023-03-01T14:44:23;102615.84;;;7.20;44.80